sensor_id;sensor_type;location;lat;lon;timestamp;temperature;humidity
55064;DHT22;40963;52.168;21.296;2024-01-25T00:02:06;6.50;99.90
55064;DHT22;40963;52.168;21.296;2024-01-25T00:04:32;6.50;99.90
55064;DHT22;40963;52.168;21.296;2024-01-25T00:06:58;6.50;99.90
55064;DHT22;40963;52.168;21.296;2024-01-25T00:09:23;6.60;99.90
55064;DHT22;40963;52.168;21.296;2024-01-25T00:11:49;6.60;99.90
55064;DHT22;40963;52.168;21.296;2024-01-25T00:14:14;6.60;99.90
55064;DHT22;40963;52.168;21.296;2024-01-25T00:16:43;6.60;99.90
55064;DHT22;40963;52.168;21.296;2024-01-25T00:19:08;6.60;99.90
55064;DHT22;40963;52.168;21.296;2024-01-25T00:21:34;6.60;99.90
55064;DHT22;40963;52.168;21.296;2024-01-25T00:24:00;6.60;99.90
55064;DHT22;40963;52.168;21.296;2024-01-25T00:26:25;6.60;99.90
55064;DHT22;40963;52.168;21.296;2024-01-25T00:28:51;6.60;99.90
55064;DHT22;40963;52.168;21.296;2024-01-25T00:31:16;6.60;99.90
55064;DHT22;40963;52.168;21.296;2024-01-25T00:33:42;6.60;99.90
55064;DHT22;40963;52.168;21.296;2024-01-25T00:36:08;6.60;99.90
55064;DHT22;40963;52.168;21.296;2024-01-25T00:38:34;6.60;99.90
55064;DHT22;40963;52.168;21.296;2024-01-25T00:41:00;6.70;99.90
55064;DHT22;40963;52.168;21.296;2024-01-25T00:43:26;6.60;99.90
55064;DHT22;40963;52.168;21.296;2024-01-25T00:45:52;6.70;99.90
55064;DHT22;40963;52.168;21.296;2024-01-25T00:48:18;6.70;99.90
55064;DHT22;40963;52.168;21.296;2024-01-25T00:50:44;6.60;99.90
55064;DHT22;40963;52.168;21.296;2024-01-25T00:53:10;6.60;99.90
55064;DHT22;40963;52.168;21.296;2024-01-25T00:55:36;6.60;99.90
55064;DHT22;40963;52.168;21.296;2024-01-25T00:58:01;6.60;99.90
55064;DHT22;40963;52.168;21.296;2024-01-25T01:00:27;6.60;99.90
55064;DHT22;40963;52.168;21.296;2024-01-25T01:02:54;6.60;99.90
55064;DHT22;40963;52.168;21.296;2024-01-25T01:05:19;6.50;99.90
55064;DHT22;40963;52.168;21.296;2024-01-25T01:07:45;6.50;99.90
55064;DHT22;40963;52.168;21.296;2024-01-25T01:10:11;6.50;99.90
55064;DHT22;40963;52.168;21.296;2024-01-25T01:12:37;6.40;99.90
55064;DHT22;40963;52.168;21.296;2024-01-25T01:15:03;6.40;99.90
55064;DHT22;40963;52.168;21.296;2024-01-25T01:17:29;6.30;99.90
55064;DHT22;40963;52.168;21.296;2024-01-25T01:19:54;6.30;99.90
55064;DHT22;40963;52.168;21.296;2024-01-25T01:22:20;6.20;99.90
55064;DHT22;40963;52.168;21.296;2024-01-25T01:24:46;6.20;99.90
55064;DHT22;40963;52.168;21.296;2024-01-25T01:27:11;6.20;99.90
55064;DHT22;40963;52.168;21.296;2024-01-25T01:29:37;6.10;99.90
55064;DHT22;40963;52.168;21.296;2024-01-25T01:32:03;6.10;99.90
55064;DHT22;40963;52.168;21.296;2024-01-25T01:34:28;6.10;99.90
55064;DHT22;40963;52.168;21.296;2024-01-25T01:36:54;6.00;99.90
55064;DHT22;40963;52.168;21.296;2024-01-25T01:39:19;6.00;99.90
55064;DHT22;40963;52.168;21.296;2024-01-25T01:41:49;6.00;99.90
55064;DHT22;40963;52.168;21.296;2024-01-25T01:44:15;5.90;99.90
55064;DHT22;40963;52.168;21.296;2024-01-25T01:46:41;5.90;99.90
55064;DHT22;40963;52.168;21.296;2024-01-25T01:49:10;5.90;99.90
55064;DHT22;40963;52.168;21.296;2024-01-25T01:51:37;5.90;99.90
55064;DHT22;40963;52.168;21.296;2024-01-25T01:54:08;5.80;99.90
55064;DHT22;40963;52.168;21.296;2024-01-25T01:56:34;5.80;99.90
55064;DHT22;40963;52.168;21.296;2024-01-25T01:59:02;5.90;99.90
55064;DHT22;40963;52.168;21.296;2024-01-25T02:01:29;5.90;99.90
55064;DHT22;40963;52.168;21.296;2024-01-25T02:03:55;5.80;99.90
55064;DHT22;40963;52.168;21.296;2024-01-25T02:06:22;5.80;99.90
55064;DHT22;40963;52.168;21.296;2024-01-25T02:08:48;5.80;99.90
55064;DHT22;40963;52.168;21.296;2024-01-25T02:11:15;5.80;99.90
55064;DHT22;40963;52.168;21.296;2024-01-25T02:13:41;5.80;99.90
55064;DHT22;40963;52.168;21.296;2024-01-25T02:16:09;5.80;99.90
55064;DHT22;40963;52.168;21.296;2024-01-25T02:18:35;5.80;99.90
55064;DHT22;40963;52.168;21.296;2024-01-25T02:21:01;5.80;99.90
55064;DHT22;40963;52.168;21.296;2024-01-25T02:23:27;5.80;99.90
55064;DHT22;40963;52.168;21.296;2024-01-25T02:25:53;5.80;99.90
55064;DHT22;40963;52.168;21.296;2024-01-25T02:28:19;5.80;99.90
55064;DHT22;40963;52.168;21.296;2024-01-25T02:30:45;5.80;99.90
55064;DHT22;40963;52.168;21.296;2024-01-25T02:33:10;5.80;99.90
55064;DHT22;40963;52.168;21.296;2024-01-25T02:35:37;5.80;99.90
55064;DHT22;40963;52.168;21.296;2024-01-25T02:38:03;5.80;99.90
55064;DHT22;40963;52.168;21.296;2024-01-25T02:40:29;5.90;99.90
55064;DHT22;40963;52.168;21.296;2024-01-25T02:42:54;5.90;99.90
55064;DHT22;40963;52.168;21.296;2024-01-25T02:45:21;5.90;99.90
55064;DHT22;40963;52.168;21.296;2024-01-25T02:47:47;5.90;99.90
55064;DHT22;40963;52.168;21.296;2024-01-25T02:50:12;5.90;99.90
55064;DHT22;40963;52.168;21.296;2024-01-25T02:52:38;5.90;99.90
55064;DHT22;40963;52.168;21.296;2024-01-25T02:55:04;5.90;99.90
55064;DHT22;40963;52.168;21.296;2024-01-25T02:57:30;5.90;99.90
55064;DHT22;40963;52.168;21.296;2024-01-25T02:59:56;5.80;99.90
55064;DHT22;40963;52.168;21.296;2024-01-25T03:02:22;5.80;99.90
55064;DHT22;40963;52.168;21.296;2024-01-25T03:04:48;5.80;99.90
55064;DHT22;40963;52.168;21.296;2024-01-25T03:07:14;5.70;99.90
55064;DHT22;40963;52.168;21.296;2024-01-25T03:09:39;5.70;99.90
55064;DHT22;40963;52.168;21.296;2024-01-25T03:12:05;5.70;99.90
55064;DHT22;40963;52.168;21.296;2024-01-25T03:14:31;5.70;99.90
55064;DHT22;40963;52.168;21.296;2024-01-25T03:16:56;5.60;99.90
55064;DHT22;40963;52.168;21.296;2024-01-25T03:19:26;5.60;99.90
55064;DHT22;40963;52.168;21.296;2024-01-25T03:21:52;5.60;99.90
55064;DHT22;40963;52.168;21.296;2024-01-25T03:24:18;5.60;99.90
55064;DHT22;40963;52.168;21.296;2024-01-25T03:26:43;5.60;99.90
55064;DHT22;40963;52.168;21.296;2024-01-25T03:29:09;5.50;99.90
55064;DHT22;40963;52.168;21.296;2024-01-25T03:31:35;5.50;99.90
55064;DHT22;40963;52.168;21.296;2024-01-25T03:34:02;5.50;99.90
55064;DHT22;40963;52.168;21.296;2024-01-25T03:36:27;5.50;99.90
55064;DHT22;40963;52.168;21.296;2024-01-25T03:38:53;5.50;99.90
55064;DHT22;40963;52.168;21.296;2024-01-25T03:41:19;5.50;99.90
55064;DHT22;40963;52.168;21.296;2024-01-25T03:43:45;5.40;99.90
55064;DHT22;40963;52.168;21.296;2024-01-25T03:46:12;5.40;99.90
55064;DHT22;40963;52.168;21.296;2024-01-25T03:48:37;5.40;99.90
55064;DHT22;40963;52.168;21.296;2024-01-25T03:51:03;5.40;99.90
55064;DHT22;40963;52.168;21.296;2024-01-25T03:53:29;5.40;99.90
55064;DHT22;40963;52.168;21.296;2024-01-25T03:55:55;5.40;99.90
55064;DHT22;40963;52.168;21.296;2024-01-25T03:58:20;5.30;99.90
55064;DHT22;40963;52.168;21.296;2024-01-25T04:00:46;5.30;99.90
55064;DHT22;40963;52.168;21.296;2024-01-25T04:03:12;5.30;99.90
55064;DHT22;40963;52.168;21.296;2024-01-25T04:05:38;5.30;99.90
55064;DHT22;40963;52.168;21.296;2024-01-25T04:08:05;5.30;99.90
55064;DHT22;40963;52.168;21.296;2024-01-25T04:10:31;5.30;99.90
55064;DHT22;40963;52.168;21.296;2024-01-25T04:12:56;5.30;99.90
55064;DHT22;40963;52.168;21.296;2024-01-25T04:15:22;5.20;99.90
55064;DHT22;40963;52.168;21.296;2024-01-25T04:17:48;5.30;99.90
55064;DHT22;40963;52.168;21.296;2024-01-25T04:20:15;5.20;99.90
55064;DHT22;40963;52.168;21.296;2024-01-25T04:22:40;5.30;99.90
55064;DHT22;40963;52.168;21.296;2024-01-25T04:25:06;5.20;99.90
55064;DHT22;40963;52.168;21.296;2024-01-25T04:27:32;5.20;99.90
55064;DHT22;40963;52.168;21.296;2024-01-25T04:29:57;5.20;99.90
55064;DHT22;40963;52.168;21.296;2024-01-25T04:32:23;5.30;99.90
55064;DHT22;40963;52.168;21.296;2024-01-25T04:34:49;5.20;99.90
55064;DHT22;40963;52.168;21.296;2024-01-25T04:37:14;5.20;99.90
55064;DHT22;40963;52.168;21.296;2024-01-25T04:39:40;5.20;99.90
55064;DHT22;40963;52.168;21.296;2024-01-25T04:42:05;5.20;99.90
55064;DHT22;40963;52.168;21.296;2024-01-25T04:44:31;5.20;99.90
55064;DHT22;40963;52.168;21.296;2024-01-25T04:46:57;5.20;99.90
55064;DHT22;40963;52.168;21.296;2024-01-25T04:49:23;5.20;99.90
55064;DHT22;40963;52.168;21.296;2024-01-25T04:51:49;5.20;99.90
55064;DHT22;40963;52.168;21.296;2024-01-25T04:54:15;5.20;99.90
55064;DHT22;40963;52.168;21.296;2024-01-25T04:56:41;5.20;99.90
55064;DHT22;40963;52.168;21.296;2024-01-25T04:59:07;5.20;99.90
55064;DHT22;40963;52.168;21.296;2024-01-25T05:01:33;5.20;99.90
55064;DHT22;40963;52.168;21.296;2024-01-25T05:03:59;5.10;99.90
55064;DHT22;40963;52.168;21.296;2024-01-25T05:06:25;5.10;99.90
55064;DHT22;40963;52.168;21.296;2024-01-25T05:08:51;5.10;99.90
55064;DHT22;40963;52.168;21.296;2024-01-25T05:11:16;5.10;99.90
55064;DHT22;40963;52.168;21.296;2024-01-25T05:13:43;5.10;99.90
55064;DHT22;40963;52.168;21.296;2024-01-25T05:16:08;5.10;99.90
55064;DHT22;40963;52.168;21.296;2024-01-25T05:18:34;5.10;99.90
55064;DHT22;40963;52.168;21.296;2024-01-25T05:20:59;5.10;99.90
55064;DHT22;40963;52.168;21.296;2024-01-25T05:23:26;5.10;99.90
55064;DHT22;40963;52.168;21.296;2024-01-25T05:25:52;5.10;99.90
55064;DHT22;40963;52.168;21.296;2024-01-25T05:28:18;5.10;99.90
55064;DHT22;40963;52.168;21.296;2024-01-25T05:30:44;5.10;99.90
55064;DHT22;40963;52.168;21.296;2024-01-25T05:33:09;5.10;99.90
55064;DHT22;40963;52.168;21.296;2024-01-25T05:35:35;5.10;99.90
55064;DHT22;40963;52.168;21.296;2024-01-25T05:38:01;5.10;99.90
55064;DHT22;40963;52.168;21.296;2024-01-25T05:40:26;5.10;99.90
55064;DHT22;40963;52.168;21.296;2024-01-25T05:42:52;5.10;99.90
55064;DHT22;40963;52.168;21.296;2024-01-25T05:45:18;5.10;99.90
55064;DHT22;40963;52.168;21.296;2024-01-25T05:47:46;5.20;99.90
55064;DHT22;40963;52.168;21.296;2024-01-25T05:50:12;5.20;99.90
55064;DHT22;40963;52.168;21.296;2024-01-25T05:52:37;5.20;99.90
55064;DHT22;40963;52.168;21.296;2024-01-25T05:55:07;5.20;99.90
55064;DHT22;40963;52.168;21.296;2024-01-25T05:57:35;5.20;99.90
55064;DHT22;40963;52.168;21.296;2024-01-25T06:00:01;5.20;99.90
55064;DHT22;40963;52.168;21.296;2024-01-25T06:02:27;5.20;99.90
55064;DHT22;40963;52.168;21.296;2024-01-25T06:04:52;5.20;99.90
55064;DHT22;40963;52.168;21.296;2024-01-25T06:07:18;5.20;99.90
55064;DHT22;40963;52.168;21.296;2024-01-25T06:09:44;5.30;99.90
55064;DHT22;40963;52.168;21.296;2024-01-25T06:12:10;5.30;99.90
55064;DHT22;40963;52.168;21.296;2024-01-25T06:14:36;5.30;99.90
55064;DHT22;40963;52.168;21.296;2024-01-25T06:17:01;5.30;99.90
55064;DHT22;40963;52.168;21.296;2024-01-25T06:19:28;5.30;99.90
55064;DHT22;40963;52.168;21.296;2024-01-25T06:21:54;5.30;99.90
55064;DHT22;40963;52.168;21.296;2024-01-25T06:24:19;5.30;99.90
55064;DHT22;40963;52.168;21.296;2024-01-25T06:26:45;5.30;99.90
55064;DHT22;40963;52.168;21.296;2024-01-25T06:29:10;5.30;99.90
55064;DHT22;40963;52.168;21.296;2024-01-25T06:31:43;5.30;99.90
55064;DHT22;40963;52.168;21.296;2024-01-25T06:34:09;5.30;99.90
55064;DHT22;40963;52.168;21.296;2024-01-25T06:36:35;5.40;99.90
55064;DHT22;40963;52.168;21.296;2024-01-25T06:39:00;5.40;99.90
55064;DHT22;40963;52.168;21.296;2024-01-25T06:41:26;5.40;99.90
55064;DHT22;40963;52.168;21.296;2024-01-25T06:43:51;5.40;99.90
55064;DHT22;40963;52.168;21.296;2024-01-25T06:46:17;5.40;99.90
55064;DHT22;40963;52.168;21.296;2024-01-25T06:48:42;5.30;99.90
55064;DHT22;40963;52.168;21.296;2024-01-25T06:51:08;5.30;99.90
55064;DHT22;40963;52.168;21.296;2024-01-25T06:53:34;5.30;99.90
55064;DHT22;40963;52.168;21.296;2024-01-25T06:55:59;5.40;99.90
55064;DHT22;40963;52.168;21.296;2024-01-25T06:58:25;5.30;99.90
55064;DHT22;40963;52.168;21.296;2024-01-25T07:00:51;5.30;99.90
55064;DHT22;40963;52.168;21.296;2024-01-25T07:03:18;5.30;99.90
55064;DHT22;40963;52.168;21.296;2024-01-25T07:05:43;5.30;99.90
55064;DHT22;40963;52.168;21.296;2024-01-25T07:08:09;5.40;99.90
55064;DHT22;40963;52.168;21.296;2024-01-25T07:10:39;5.30;99.90
55064;DHT22;40963;52.168;21.296;2024-01-25T07:13:05;5.30;99.90
55064;DHT22;40963;52.168;21.296;2024-01-25T07:15:31;5.30;99.90
55064;DHT22;40963;52.168;21.296;2024-01-25T07:17:57;5.30;99.90
55064;DHT22;40963;52.168;21.296;2024-01-25T07:20:23;5.30;99.90
55064;DHT22;40963;52.168;21.296;2024-01-25T07:22:48;5.30;99.90
55064;DHT22;40963;52.168;21.296;2024-01-25T07:25:14;5.30;99.90
55064;DHT22;40963;52.168;21.296;2024-01-25T07:27:44;5.30;99.90
55064;DHT22;40963;52.168;21.296;2024-01-25T07:30:10;5.20;99.90
55064;DHT22;40963;52.168;21.296;2024-01-25T07:32:37;5.20;99.90
55064;DHT22;40963;52.168;21.296;2024-01-25T07:35:04;5.20;99.90
55064;DHT22;40963;52.168;21.296;2024-01-25T07:37:30;5.20;99.90
55064;DHT22;40963;52.168;21.296;2024-01-25T07:39:56;5.20;99.90
55064;DHT22;40963;52.168;21.296;2024-01-25T07:42:21;5.20;99.90
55064;DHT22;40963;52.168;21.296;2024-01-25T07:44:47;5.20;99.90
55064;DHT22;40963;52.168;21.296;2024-01-25T07:47:13;5.20;99.90
55064;DHT22;40963;52.168;21.296;2024-01-25T07:49:40;5.20;99.90
55064;DHT22;40963;52.168;21.296;2024-01-25T07:52:06;5.20;99.90
55064;DHT22;40963;52.168;21.296;2024-01-25T07:54:32;5.10;99.90
55064;DHT22;40963;52.168;21.296;2024-01-25T07:56:57;5.10;99.90
55064;DHT22;40963;52.168;21.296;2024-01-25T07:59:23;5.10;99.90
55064;DHT22;40963;52.168;21.296;2024-01-25T08:01:49;5.10;99.90
55064;DHT22;40963;52.168;21.296;2024-01-25T08:04:14;5.10;99.90
55064;DHT22;40963;52.168;21.296;2024-01-25T08:06:40;5.10;99.90
55064;DHT22;40963;52.168;21.296;2024-01-25T08:09:05;5.10;99.90
55064;DHT22;40963;52.168;21.296;2024-01-25T08:11:31;5.10;99.90
55064;DHT22;40963;52.168;21.296;2024-01-25T08:13:57;5.10;99.90
55064;DHT22;40963;52.168;21.296;2024-01-25T08:16:22;5.10;99.90
55064;DHT22;40963;52.168;21.296;2024-01-25T08:18:48;5.10;99.90
55064;DHT22;40963;52.168;21.296;2024-01-25T08:21:14;5.10;99.90
55064;DHT22;40963;52.168;21.296;2024-01-25T08:23:40;5.10;99.90
55064;DHT22;40963;52.168;21.296;2024-01-25T08:26:06;5.10;99.90
55064;DHT22;40963;52.168;21.296;2024-01-25T08:28:39;5.10;99.90
55064;DHT22;40963;52.168;21.296;2024-01-25T08:31:05;5.10;99.90
55064;DHT22;40963;52.168;21.296;2024-01-25T08:33:31;5.10;99.90
55064;DHT22;40963;52.168;21.296;2024-01-25T08:35:56;5.10;99.90
55064;DHT22;40963;52.168;21.296;2024-01-25T08:38:22;5.10;99.90
55064;DHT22;40963;52.168;21.296;2024-01-25T08:40:48;5.10;99.90
55064;DHT22;40963;52.168;21.296;2024-01-25T08:43:13;5.10;99.90
55064;DHT22;40963;52.168;21.296;2024-01-25T08:45:39;5.10;99.90
55064;DHT22;40963;52.168;21.296;2024-01-25T08:48:05;5.10;99.90
55064;DHT22;40963;52.168;21.296;2024-01-25T08:50:31;5.10;99.90
55064;DHT22;40963;52.168;21.296;2024-01-25T08:52:56;5.10;99.90
55064;DHT22;40963;52.168;21.296;2024-01-25T08:55:22;5.20;99.90
55064;DHT22;40963;52.168;21.296;2024-01-25T08:57:49;5.10;99.90
55064;DHT22;40963;52.168;21.296;2024-01-25T09:00:14;5.20;99.90
55064;DHT22;40963;52.168;21.296;2024-01-25T09:02:40;5.20;99.90
55064;DHT22;40963;52.168;21.296;2024-01-25T09:05:06;5.20;99.90
55064;DHT22;40963;52.168;21.296;2024-01-25T09:07:32;5.20;99.90
55064;DHT22;40963;52.168;21.296;2024-01-25T09:09:58;5.20;99.90
55064;DHT22;40963;52.168;21.296;2024-01-25T09:12:24;5.20;99.90
55064;DHT22;40963;52.168;21.296;2024-01-25T09:14:49;5.20;99.90
55064;DHT22;40963;52.168;21.296;2024-01-25T09:17:15;5.20;99.90
55064;DHT22;40963;52.168;21.296;2024-01-25T09:19:50;5.20;99.90
55064;DHT22;40963;52.168;21.296;2024-01-25T09:22:16;5.20;99.90
55064;DHT22;40963;52.168;21.296;2024-01-25T09:24:43;5.20;99.90
55064;DHT22;40963;52.168;21.296;2024-01-25T09:27:09;5.20;99.90
55064;DHT22;40963;52.168;21.296;2024-01-25T09:29:35;5.20;99.90
55064;DHT22;40963;52.168;21.296;2024-01-25T09:32:00;5.20;99.90
55064;DHT22;40963;52.168;21.296;2024-01-25T09:34:26;5.20;99.90
55064;DHT22;40963;52.168;21.296;2024-01-25T09:36:51;5.20;99.90
55064;DHT22;40963;52.168;21.296;2024-01-25T09:39:17;5.20;99.90
55064;DHT22;40963;52.168;21.296;2024-01-25T09:41:43;5.30;99.90
55064;DHT22;40963;52.168;21.296;2024-01-25T09:44:09;5.30;99.90
55064;DHT22;40963;52.168;21.296;2024-01-25T09:46:36;5.30;99.90
55064;DHT22;40963;52.168;21.296;2024-01-25T09:49:02;5.30;99.90
55064;DHT22;40963;52.168;21.296;2024-01-25T09:51:36;5.30;99.90
55064;DHT22;40963;52.168;21.296;2024-01-25T09:54:03;5.30;99.90
55064;DHT22;40963;52.168;21.296;2024-01-25T09:56:31;5.40;99.90
55064;DHT22;40963;52.168;21.296;2024-01-25T09:58:57;5.30;99.90
55064;DHT22;40963;52.168;21.296;2024-01-25T10:01:23;5.30;99.90
55064;DHT22;40963;52.168;21.296;2024-01-25T10:03:49;5.30;99.90
55064;DHT22;40963;52.168;21.296;2024-01-25T10:06:16;5.40;99.90
55064;DHT22;40963;52.168;21.296;2024-01-25T10:08:42;5.40;99.90
55064;DHT22;40963;52.168;21.296;2024-01-25T10:11:08;5.40;99.90
55064;DHT22;40963;52.168;21.296;2024-01-25T10:13:41;5.40;99.90
55064;DHT22;40963;52.168;21.296;2024-01-25T10:16:10;5.40;99.90
55064;DHT22;40963;52.168;21.296;2024-01-25T10:18:35;5.40;99.90
55064;DHT22;40963;52.168;21.296;2024-01-25T10:21:02;5.40;99.90
55064;DHT22;40963;52.168;21.296;2024-01-25T10:23:28;5.40;99.90
55064;DHT22;40963;52.168;21.296;2024-01-25T10:25:56;5.40;99.90
55064;DHT22;40963;52.168;21.296;2024-01-25T10:28:23;5.40;99.90
55064;DHT22;40963;52.168;21.296;2024-01-25T10:30:50;5.40;99.90
55064;DHT22;40963;52.168;21.296;2024-01-25T10:33:17;5.40;99.90
55064;DHT22;40963;52.168;21.296;2024-01-25T10:35:44;5.50;99.90
55064;DHT22;40963;52.168;21.296;2024-01-25T10:38:19;5.40;99.90
55064;DHT22;40963;52.168;21.296;2024-01-25T10:40:48;5.50;99.90
55064;DHT22;40963;52.168;21.296;2024-01-25T10:43:14;5.50;99.90
55064;DHT22;40963;52.168;21.296;2024-01-25T10:45:40;5.50;99.90
55064;DHT22;40963;52.168;21.296;2024-01-25T10:48:07;5.50;99.90
55064;DHT22;40963;52.168;21.296;2024-01-25T10:50:33;5.50;99.90
55064;DHT22;40963;52.168;21.296;2024-01-25T10:52:59;5.50;99.90
55064;DHT22;40963;52.168;21.296;2024-01-25T10:55:25;5.50;99.90
55064;DHT22;40963;52.168;21.296;2024-01-25T10:57:52;5.50;99.90
55064;DHT22;40963;52.168;21.296;2024-01-25T11:00:21;5.60;99.90
55064;DHT22;40963;52.168;21.296;2024-01-25T11:02:47;5.60;99.90
55064;DHT22;40963;52.168;21.296;2024-01-25T11:05:16;5.60;99.90
55064;DHT22;40963;52.168;21.296;2024-01-25T11:07:46;5.60;99.90
55064;DHT22;40963;52.168;21.296;2024-01-25T11:10:20;5.60;99.90
55064;DHT22;40963;52.168;21.296;2024-01-25T11:13:01;5.60;99.90
55064;DHT22;40963;52.168;21.296;2024-01-25T11:15:35;5.60;99.90
55064;DHT22;40963;52.168;21.296;2024-01-25T11:18:03;5.70;99.90
55064;DHT22;40963;52.168;21.296;2024-01-25T11:20:30;5.70;99.90
55064;DHT22;40963;52.168;21.296;2024-01-25T11:22:57;5.70;99.90
55064;DHT22;40963;52.168;21.296;2024-01-25T11:25:30;5.70;99.90
55064;DHT22;40963;52.168;21.296;2024-01-25T11:27:57;5.70;99.90
55064;DHT22;40963;52.168;21.296;2024-01-25T11:30:23;5.70;99.90
55064;DHT22;40963;52.168;21.296;2024-01-25T11:32:49;5.70;99.90
55064;DHT22;40963;52.168;21.296;2024-01-25T11:35:15;5.70;99.90
55064;DHT22;40963;52.168;21.296;2024-01-25T11:37:48;5.80;99.90
55064;DHT22;40963;52.168;21.296;2024-01-25T11:40:14;5.70;99.90
55064;DHT22;40963;52.168;21.296;2024-01-25T11:42:42;5.70;99.90
55064;DHT22;40963;52.168;21.296;2024-01-25T11:45:10;5.80;99.90
55064;DHT22;40963;52.168;21.296;2024-01-25T11:47:37;5.80;99.90
55064;DHT22;40963;52.168;21.296;2024-01-25T11:50:03;5.80;99.90
55064;DHT22;40963;52.168;21.296;2024-01-25T11:52:29;5.80;99.90
55064;DHT22;40963;52.168;21.296;2024-01-25T11:54:58;5.80;99.90
55064;DHT22;40963;52.168;21.296;2024-01-25T11:57:23;5.80;99.90
55064;DHT22;40963;52.168;21.296;2024-01-25T11:59:49;5.80;99.90
55064;DHT22;40963;52.168;21.296;2024-01-25T12:02:15;5.80;99.90
55064;DHT22;40963;52.168;21.296;2024-01-25T12:04:41;5.80;99.90
55064;DHT22;40963;52.168;21.296;2024-01-25T12:07:07;5.80;99.90
55064;DHT22;40963;52.168;21.296;2024-01-25T12:09:33;5.90;99.90
55064;DHT22;40963;52.168;21.296;2024-01-25T12:12:00;5.80;99.90
55064;DHT22;40963;52.168;21.296;2024-01-25T12:14:27;5.90;99.90
55064;DHT22;40963;52.168;21.296;2024-01-25T12:16:55;5.90;99.90
55064;DHT22;40963;52.168;21.296;2024-01-25T12:19:21;5.90;99.90
55064;DHT22;40963;52.168;21.296;2024-01-25T12:21:47;5.90;99.90
55064;DHT22;40963;52.168;21.296;2024-01-25T12:24:13;5.90;99.90
55064;DHT22;40963;52.168;21.296;2024-01-25T12:26:41;5.90;99.90
55064;DHT22;40963;52.168;21.296;2024-01-25T12:29:07;5.80;99.90
55064;DHT22;40963;52.168;21.296;2024-01-25T12:31:33;5.70;99.90
55064;DHT22;40963;52.168;21.296;2024-01-25T12:34:00;5.60;99.90
55064;DHT22;40963;52.168;21.296;2024-01-25T12:36:26;5.50;99.90
55064;DHT22;40963;52.168;21.296;2024-01-25T12:38:51;5.40;99.90
55064;DHT22;40963;52.168;21.296;2024-01-25T12:41:17;5.20;99.90
55064;DHT22;40963;52.168;21.296;2024-01-25T12:43:43;5.10;99.90
55064;DHT22;40963;52.168;21.296;2024-01-25T12:46:08;4.90;99.90
55064;DHT22;40963;52.168;21.296;2024-01-25T12:48:34;4.80;99.90
55064;DHT22;40963;52.168;21.296;2024-01-25T12:51:00;4.70;99.90
55064;DHT22;40963;52.168;21.296;2024-01-25T12:53:27;4.60;99.90
55064;DHT22;40963;52.168;21.296;2024-01-25T12:55:53;4.50;99.90
55064;DHT22;40963;52.168;21.296;2024-01-25T12:58:18;4.50;99.90
55064;DHT22;40963;52.168;21.296;2024-01-25T13:00:44;4.40;99.90
55064;DHT22;40963;52.168;21.296;2024-01-25T13:03:11;4.40;99.90
55064;DHT22;40963;52.168;21.296;2024-01-25T13:05:37;4.30;99.90
55064;DHT22;40963;52.168;21.296;2024-01-25T13:08:05;4.30;99.90
55064;DHT22;40963;52.168;21.296;2024-01-25T13:10:31;4.30;99.90
55064;DHT22;40963;52.168;21.296;2024-01-25T13:12:57;4.30;99.90
55064;DHT22;40963;52.168;21.296;2024-01-25T13:15:23;4.20;99.90
55064;DHT22;40963;52.168;21.296;2024-01-25T13:17:49;4.20;99.90
55064;DHT22;40963;52.168;21.296;2024-01-25T13:20:15;4.20;99.90
55064;DHT22;40963;52.168;21.296;2024-01-25T13:22:40;4.10;99.90
55064;DHT22;40963;52.168;21.296;2024-01-25T13:25:06;4.10;99.90
55064;DHT22;40963;52.168;21.296;2024-01-25T13:27:32;4.10;99.90
55064;DHT22;40963;52.168;21.296;2024-01-25T13:29:58;4.10;99.90
55064;DHT22;40963;52.168;21.296;2024-01-25T13:32:23;4.10;99.90
55064;DHT22;40963;52.168;21.296;2024-01-25T13:34:49;4.10;99.90
55064;DHT22;40963;52.168;21.296;2024-01-25T13:37:15;4.10;99.90
55064;DHT22;40963;52.168;21.296;2024-01-25T13:39:41;4.10;99.90
55064;DHT22;40963;52.168;21.296;2024-01-25T13:42:06;4.10;99.90
55064;DHT22;40963;52.168;21.296;2024-01-25T13:44:32;4.10;99.90
55064;DHT22;40963;52.168;21.296;2024-01-25T13:46:57;4.10;99.90
55064;DHT22;40963;52.168;21.296;2024-01-25T13:49:24;4.10;99.90
55064;DHT22;40963;52.168;21.296;2024-01-25T13:51:50;4.00;99.90
55064;DHT22;40963;52.168;21.296;2024-01-25T13:54:15;4.00;99.90
55064;DHT22;40963;52.168;21.296;2024-01-25T13:56:41;4.00;99.90
55064;DHT22;40963;52.168;21.296;2024-01-25T13:59:06;3.90;99.90
55064;DHT22;40963;52.168;21.296;2024-01-25T14:01:32;3.90;99.90
55064;DHT22;40963;52.168;21.296;2024-01-25T14:03:58;3.80;99.90
55064;DHT22;40963;52.168;21.296;2024-01-25T14:06:24;3.80;99.90
55064;DHT22;40963;52.168;21.296;2024-01-25T14:08:49;3.70;99.90
55064;DHT22;40963;52.168;21.296;2024-01-25T14:11:15;3.70;99.90
55064;DHT22;40963;52.168;21.296;2024-01-25T14:13:42;3.70;99.90
55064;DHT22;40963;52.168;21.296;2024-01-25T14:16:08;3.60;99.90
55064;DHT22;40963;52.168;21.296;2024-01-25T14:18:39;3.50;99.90
55064;DHT22;40963;52.168;21.296;2024-01-25T14:21:05;3.50;99.90
55064;DHT22;40963;52.168;21.296;2024-01-25T14:23:32;3.40;99.90
55064;DHT22;40963;52.168;21.296;2024-01-25T14:25:57;3.40;99.90
55064;DHT22;40963;52.168;21.296;2024-01-25T14:28:23;3.30;99.90
55064;DHT22;40963;52.168;21.296;2024-01-25T14:30:49;3.30;99.90
55064;DHT22;40963;52.168;21.296;2024-01-25T14:33:14;3.30;99.90
55064;DHT22;40963;52.168;21.296;2024-01-25T14:35:40;3.30;99.90
55064;DHT22;40963;52.168;21.296;2024-01-25T14:38:05;3.30;99.90
55064;DHT22;40963;52.168;21.296;2024-01-25T14:40:31;3.30;99.90
55064;DHT22;40963;52.168;21.296;2024-01-25T14:42:56;3.30;99.90
55064;DHT22;40963;52.168;21.296;2024-01-25T14:45:23;3.30;99.90
55064;DHT22;40963;52.168;21.296;2024-01-25T14:47:48;3.40;99.90
55064;DHT22;40963;52.168;21.296;2024-01-25T14:50:14;3.40;99.90
55064;DHT22;40963;52.168;21.296;2024-01-25T14:52:40;3.40;99.90
55064;DHT22;40963;52.168;21.296;2024-01-25T14:55:05;3.30;99.90
55064;DHT22;40963;52.168;21.296;2024-01-25T14:57:31;3.40;99.90
55064;DHT22;40963;52.168;21.296;2024-01-25T14:59:57;3.40;99.90
55064;DHT22;40963;52.168;21.296;2024-01-25T15:02:22;3.40;99.90
55064;DHT22;40963;52.168;21.296;2024-01-25T15:04:51;3.40;99.90
55064;DHT22;40963;52.168;21.296;2024-01-25T15:07:17;3.40;99.90
55064;DHT22;40963;52.168;21.296;2024-01-25T15:09:49;3.40;99.90
55064;DHT22;40963;52.168;21.296;2024-01-25T15:12:15;3.40;99.90
55064;DHT22;40963;52.168;21.296;2024-01-25T15:14:41;3.30;99.90
55064;DHT22;40963;52.168;21.296;2024-01-25T15:17:07;3.30;99.90
55064;DHT22;40963;52.168;21.296;2024-01-25T15:19:32;3.30;99.90
55064;DHT22;40963;52.168;21.296;2024-01-25T15:21:58;3.30;99.90
55064;DHT22;40963;52.168;21.296;2024-01-25T15:24:24;3.30;99.90